Wetterdaten: Woche 16.10.23 - 22.10.23 (KW42)
Datum Zeit Temp. Aussen Temp. o. S. Temp +5cm Feuchte Auss Luftdruck Regen Sonnenschein Regendauer Solar Windben Empfang
16.10.2023 00:00 5,4 C 4,5 C 1,7 C 94 % 1025,0 hPa 0,0 l/m 0,00 h 0,00 h 0 W/m 0,7 km/h (0 Bft) 98,13 %
16.10.2023 01:00 5,3 C 4,4 C 1,7 C 95 % 1024,8 hPa 0,0 l/m 0,00 h 0,00 h 0 W/m 0,0 km/h (0 Bft) 95,31 %
16.10.2023 02:00 5,0 C 4,0 C 1,4 C 95 % 1024,7 hPa 0,0 l/m 0,00 h 0,00 h 0 W/m 0,0 km/h (0 Bft) 96,34 %
16.10.2023 03:00 4,5 C 3,4 C 1,0 C 96 % 1024,4 hPa 0,0 l/m 0,00 h 0,00 h 0 W/m 0,0 km/h (0 Bft) 98,40 %
16.10.2023 04:00 4,2 C 3,3 C 0,7 C 96 % 1024,2 hPa 0,0 l/m 0,00 h 0,00 h 0 W/m 0,0 km/h (0 Bft) 98,36 %
16.10.2023 05:00 4,2 C 3,2 C 0,8 C 96 % 1024,1 hPa 0,0 l/m 0,00 h 0,00 h 0 W/m 0,0 km/h (0 Bft) 97,01 %
16.10.2023 06:00 3,8 C 2,9 C 0,6 C 96 % 1024,0 hPa 0,0 l/m 0,00 h 0,00 h 0 W/m 1,7 km/h (1 Bft) 96,70 %
16.10.2023 07:00 3,6 C 2,8 C 0,6 C 97 % 1023,7 hPa 0,2 l/m 0,00 h 0,00 h 5 W/m 1,2 km/h (1 Bft) 97,19 %
16.10.2023 08:00 3,7 C 3,2 C 0,8 C 97 % 1023,9 hPa 0,0 l/m 0,00 h 0,00 h 23 W/m 2,3 km/h (1 Bft) 96,70 %
16.10.2023 09:00 4,4 C 4,6 C 1,7 C 97 % 1024,0 hPa 0,0 l/m 0,00 h 0,00 h 70 W/m 4,6 km/h (1 Bft) 97,51 %
16.10.2023 10:00 5,8 C 6,6 C 3,2 C 98 % 1024,0 hPa 0,0 l/m 0,17 h 0,00 h 132 W/m 5,0 km/h (1 Bft) 95,70 %
16.10.2023 11:00 7,4 C 10,3 C 5,3 C 98 % 1024,0 hPa 0,0 l/m 0,07 h 0,00 h 150 W/m 5,0 km/h (1 Bft) 99,50 %
16.10.2023 12:00 9,0 C 9,9 C 6,3 C 95 % 1023,9 hPa 0,0 l/m 0,00 h 0,00 h 96 W/m 6,5 km/h (2 Bft) 96,49 %
16.10.2023 13:00 10,3 C 11,0 C 6,9 C 88 % 1023,3 hPa 0,0 l/m 0,00 h 0,00 h 162 W/m 5,0 km/h (1 Bft) 98,20 %
16.10.2023 14:00 11,3 C 11,8 C 7,2 C 83 % 1022,9 hPa 0,0 l/m 0,83 h 0,00 h 308 W/m 4,3 km/h (1 Bft) 97,47 %
16.10.2023 15:00 11,9 C 12,2 C 7,8 C 80 % 1022,4 hPa 0,0 l/m 1,00 h 0,00 h 291 W/m 4,2 km/h (1 Bft) 96,34 %
16.10.2023 16:00 12,0 C 12,0 C 7,6 C 79 % 1022,0 hPa 0,0 l/m 0,67 h 0,00 h 169 W/m 3,2 km/h (1 Bft) 98,50 %
16.10.2023 17:00 11,6 C 11,3 C 7,1 C 81 % 1021,7 hPa 0,0 l/m 0,42 h 0,00 h 77 W/m 1,3 km/h (1 Bft) 96,18 %
16.10.2023 18:00 10,9 C 9,2 C 5,9 C 84 % 1021,6 hPa 0,0 l/m 0,00 h 0,00 h 15 W/m 0,1 km/h (0 Bft) 97,09 %
16.10.2023 19:00 9,7 C 7,9 C 4,6 C 88 % 1021,7 hPa 0,0 l/m 0,00 h 0,00 h 0 W/m 0,0 km/h (0 Bft) 97,77 %
16.10.2023 20:00 8,7 C 7,2 C 4,0 C 90 % 1021,8 hPa 0,0 l/m 0,00 h 0,00 h 0 W/m 0,0 km/h (0 Bft) 95,50 %
16.10.2023 21:00 8,2 C 7,2 C 3,8 C 93 % 1021,6 hPa 0,0 l/m 0,00 h 0,00 h 0 W/m 0,1 km/h (0 Bft) 97,72 %
16.10.2023 22:00 7,7 C 6,5 C 3,2 C 94 % 1021,6 hPa 0,0 l/m 0,00 h 0,00 h 0 W/m 0,0 km/h (0 Bft) 97,24 %
16.10.2023 23:00 7,3 C 6,7 C 3,3 C 95 % 1021,5 hPa 0,0 l/m 0,00 h 0,00 h 0 W/m 0,3 km/h (0 Bft) 97,92 %
17.10.2023 00:00 7,1 C 6,5 C 3,3 C 95 % 1021,5 hPa 0,0 l/m 0,00 h 0,00 h 0 W/m 0,0 km/h (0 Bft) 97,73 %
17.10.2023 01:00 6,7 C 6,0 C 2,8 C 95 % 1021,1 hPa 0,0 l/m 0,00 h 0,00 h 0 W/m 0,0 km/h (0 Bft) 99,78 %
17.10.2023 02:00 6,3 C 5,6 C 2,6 C 96 % 1020,9 hPa 0,0 l/m 0,00 h 0,00 h 0 W/m 0,0 km/h (0 Bft) 95,83 %
17.10.2023 03:00 6,0 C 5,3 C 2,2 C 96 % 1020,6 hPa 0,0 l/m 0,00 h 0,00 h 0 W/m 0,0 km/h (0 Bft) 99,78 %
17.10.2023 04:00 5,9 C 5,4 C 2,4 C 96 % 1020,3 hPa 0,0 l/m 0,00 h 0,00 h 0 W/m 0,0 km/h (0 Bft) 98,68 %
17.10.2023 05:00 5,9 C 5,6 C 2,5 C 97 % 1020,1 hPa 0,0 l/m 0,00 h 0,00 h 0 W/m 0,0 km/h (0 Bft) 97,66 %
17.10.2023 06:00 5,9 C 5,4 C 2,3 C 97 % 1020,1 hPa 0,0 l/m 0,00 h 0,00 h 0 W/m 1,1 km/h (0 Bft) 99,85 %
17.10.2023 07:00 5,8 C 5,1 C 2,2 C 97 % 1020,1 hPa 0,0 l/m 0,00 h 0,00 h 0 W/m 2,4 km/h (1 Bft) 99,05 %
17.10.2023 08:00 5,7 C 5,2 C 2,3 C 97 % 1020,3 hPa 0,0 l/m 0,00 h 0,00 h 19 W/m 1,9 km/h (1 Bft) 99,20 %
17.10.2023 09:00 6,3 C 6,4 C 3,0 C 97 % 1020,3 hPa 0,0 l/m 0,00 h 0,00 h 56 W/m 3,2 km/h (1 Bft) 98,76 %
17.10.2023 10:00 7,1 C 7,5 C 3,9 C 97 % 1020,1 hPa 0,0 l/m 0,00 h 0,00 h 82 W/m 5,6 km/h (1 Bft) 99,63 %
17.10.2023 11:00 9,1 C 13,8 C 6,6 C 94 % 1020,0 hPa 0,0 l/m 0,25 h 0,00 h 150 W/m 9,7 km/h (2 Bft) 99,42 %
17.10.2023 12:00 11,6 C 11,7 C 7,8 C 75 % 1019,8 hPa 0,0 l/m 0,00 h 0,00 h 48 W/m 13,2 km/h (3 Bft) 99,64 %
17.10.2023 13:00 12,5 C 12,2 C 8,1 C 71 % 1019,3 hPa 0,0 l/m 0,00 h 0,00 h 50 W/m 12,4 km/h (3 Bft) 96,86 %
17.10.2023 14:00 13,2 C 12,9 C 8,4 C 69 % 1018,5 hPa 0,0 l/m 0,92 h 0,00 h 493 W/m 13,2 km/h (3 Bft) 98,61 %
17.10.2023 15:00 13,4 C 13,2 C 9,0 C 68 % 1017,9 hPa 0,0 l/m 0,92 h 0,00 h 375 W/m 14,5 km/h (3 Bft) 99,85 %
17.10.2023 16:00 13,2 C 12,8 C 8,5 C 70 % 1017,2 hPa 0,0 l/m 1,00 h 0,00 h 244 W/m 12,1 km/h (2 Bft) 99,56 %
17.10.2023 17:00 12,5 C 11,5 C 7,6 C 77 % 1016,9 hPa 0,0 l/m 0,08 h 0,00 h 37 W/m 10,5 km/h (2 Bft) 99,56 %
17.10.2023 18:00 10,9 C 10,0 C 6,1 C 84 % 1016,9 hPa 0,0 l/m 0,00 h 0,00 h 10 W/m 7,2 km/h (2 Bft) 99,05 %
17.10.2023 19:00 9,5 C 8,6 C 5,0 C 87 % 1017,1 hPa 0,0 l/m 0,00 h 0,00 h 0 W/m 7,2 km/h (2 Bft) 99,85 %
17.10.2023 20:00 8,7 C 7,9 C 4,3 C 88 % 1016,9 hPa 0,0 l/m 0,00 h 0,00 h 0 W/m 9,1 km/h (2 Bft) 99,49 %
17.10.2023 21:00 7,8 C 6,9 C 3,4 C 90 % 1016,6 hPa 0,0 l/m 0,00 h 0,00 h 0 W/m 6,2 km/h (2 Bft) 98,10 %
17.10.2023 22:00 6,9 C 6,0 C 2,6 C 92 % 1016,1 hPa 0,0 l/m 0,00 h 0,00 h 0 W/m 5,1 km/h (1 Bft) 99,49 %
17.10.2023 23:00 6,1 C 5,3 C 2,1 C 93 % 1015,6 hPa 0,0 l/m 0,00 h 0,00 h 0 W/m 2,4 km/h (1 Bft) 99,27 %
18.10.2023 00:00 5,6 C 4,8 C 1,7 C 94 % 1015,1 hPa 0,0 l/m 0,00 h 0,00 h 0 W/m 2,7 km/h (1 Bft) 99,93 %
18.10.2023 01:00 5,1 C 4,4 C 1,3 C 94 % 1014,5 hPa 0,0 l/m 0,00 h 0,00 h 0 W/m 3,2 km/h (1 Bft) 93,42 %
18.10.2023 02:00 4,8 C 4,0 C 1,1 C 95 % 1014,0 hPa 0,0 l/m 0,00 h 0,00 h 0 W/m 1,1 km/h (0 Bft) 97,44 %
18.10.2023 03:00 4,4 C 3,9 C 0,8 C 95 % 1013,4 hPa 0,0 l/m 0,00 h 0,00 h 0 W/m 3,2 km/h (1 Bft) 100,00 %
18.10.2023 04:00 4,2 C 3,5 C 0,6 C 96 % 1012,7 hPa 0,0 l/m 0,00 h 0,00 h 0 W/m 3,5 km/h (1 Bft) 98,98 %
18.10.2023 05:00 3,9 C 3,3 C 0,3 C 96 % 1012,2 hPa 0,0 l/m 0,00 h 0,00 h 0 W/m 2,7 km/h (1 Bft) 96,93 %
18.10.2023 06:00 3,7 C 3,3 C 0,0 C 96 % 1011,4 hPa 0,0 l/m 0,00 h 0,00 h 0 W/m 5,3 km/h (1 Bft) 99,78 %
18.10.2023 07:00 3,7 C 3,3 C 0,0 C 96 % 1010,8 hPa 0,0 l/m 0,00 h 0,00 h 0 W/m 2,4 km/h (1 Bft) 99,56 %
18.10.2023 08:00 3,8 C 3,6 C 0,5 C 97 % 1010,4 hPa 0,0 l/m 0,00 h 0,00 h 18 W/m 3,7 km/h (1 Bft) 99,34 %
18.10.2023 09:00 4,8 C 5,2 C 1,8 C 97 % 1009,7 hPa 0,2 l/m 0,00 h 0,00 h 67 W/m 5,1 km/h (1 Bft) 97,59 %
18.10.2023 10:00 7,3 C 8,4 C 4,6 C 94 % 1009,1 hPa 0,0 l/m 0,00 h 0,00 h 115 W/m 11,6 km/h (2 Bft) 99,71 %
18.10.2023 11:00 10,0 C 11,3 C 6,5 C 80 % 1008,5 hPa 0,0 l/m 0,17 h 0,00 h 191 W/m 16,9 km/h (3 Bft) 98,17 %
18.10.2023 12:00 12,0 C 12,3 C 7,9 C 72 % 1007,5 hPa 0,0 l/m 0,00 h 0,00 h 141 W/m 17,4 km/h (3 Bft) 99,12 %
18.10.2023 13:00 13,2 C 13,2 C 8,7 C 68 % 1006,2 hPa 0,0 l/m 0,00 h 0,00 h 167 W/m 15,8 km/h (3 Bft) 99,42 %
18.10.2023 14:00 14,4 C 14,1 C 9,6 C 65 % 1004,9 hPa 0,0 l/m 0,83 h 0,00 h 281 W/m 15,8 km/h (3 Bft) 99,27 %
18.10.2023 15:00 14,9 C 14,4 C 10,0 C 64 % 1003,4 hPa 0,0 l/m 0,75 h 0,00 h 211 W/m 16,6 km/h (3 Bft) 99,27 %
18.10.2023 16:00 14,7 C 14,0 C 9,5 C 67 % 1002,2 hPa 0,0 l/m 0,00 h 0,00 h 75 W/m 12,1 km/h (2 Bft) 99,93 %
18.10.2023 17:00 14,4 C 13,7 C 9,4 C 67 % 1001,3 hPa 0,0 l/m 0,00 h 0,00 h 41 W/m 15,3 km/h (3 Bft) 99,20 %
18.10.2023 18:00 13,9 C 12,9 C 8,8 C 70 % 1000,6 hPa 0,0 l/m 0,00 h 0,00 h 9 W/m 13,2 km/h (3 Bft) 97,81 %
18.10.2023 19:00 13,6 C 12,8 C 8,9 C 71 % 1000,0 hPa 0,0 l/m 0,00 h 0,00 h 0 W/m 18,2 km/h (3 Bft) 99,12 %
18.10.2023 20:00 13,6 C 12,8 C 8,9 C 70 % 999,1 hPa 0,0 l/m 0,00 h 0,00 h 0 W/m 17,2 km/h (3 Bft) 99,64 %
18.10.2023 21:00 13,3 C 12,6 C 8,4 C 72 % 998,3 hPa 0,0 l/m 0,00 h 0,33 h 0 W/m 20,6 km/h (4 Bft) 97,37 %
18.10.2023 22:00 11,7 C 10,3 C 5,6 C 85 % 997,7 hPa 1,8 l/m 0,00 h 0,83 h 0 W/m 16,6 km/h (3 Bft) 98,90 %
18.10.2023 23:00 10,7 C 9,6 C 5,6 C 92 % 996,9 hPa 4,0 l/m 0,00 h 0,92 h 0 W/m 18,5 km/h (3 Bft) 99,20 %
19.10.2023 00:00 10,4 C 9,4 C 5,9 C 96 % 996,0 hPa 2,0 l/m 0,00 h 0,17 h 0 W/m 22,0 km/h (4 Bft) 95,61 %
19.10.2023 01:00 10,5 C 9,5 C 6,1 C 97 % 995,3 hPa 0,0 l/m 0,00 h 0,00 h 0 W/m 22,2 km/h (4 Bft) 97,37 %
19.10.2023 02:00 10,7 C 10,0 C 6,4 C 97 % 994,8 hPa 0,0 l/m 0,00 h 0,00 h 0 W/m 18,5 km/h (3 Bft) 99,20 %
19.10.2023 03:00 11,2 C 10,5 C 6,9 C 98 % 994,6 hPa 0,0 l/m 0,00 h 0,00 h 0 W/m 16,6 km/h (3 Bft) 97,81 %
19.10.2023 04:00 11,6 C 10,9 C 7,3 C 98 % 994,3 hPa 0,0 l/m 0,00 h 0,00 h 0 W/m 10,3 km/h (2 Bft) 97,35 %
19.10.2023 05:00 12,0 C 11,1 C 7,8 C 98 % 994,0 hPa 0,0 l/m 0,00 h 0,00 h 0 W/m 6,4 km/h (2 Bft) 99,21 %
19.10.2023 06:00 12,0 C 11,2 C 7,8 C 98 % 993,7 hPa 0,0 l/m 0,00 h 0,00 h 0 W/m 8,0 km/h (2 Bft) 98,18 %
19.10.2023 07:00 12,1 C 11,3 C 7,8 C 98 % 993,7 hPa 0,0 l/m 0,00 h 0,00 h 0 W/m 4,4 km/h (1 Bft) 96,07 %
19.10.2023 08:00 12,2 C 11,7 C 8,0 C 98 % 994,0 hPa 0,0 l/m 0,00 h 0,00 h 11 W/m 2,3 km/h (1 Bft) 98,36 %
19.10.2023 09:00 12,5 C 12,2 C 8,5 C 99 % 994,2 hPa 0,0 l/m 0,00 h 0,00 h 31 W/m 0,0 km/h (0 Bft) 98,38 %
19.10.2023 10:00 13,4 C 13,7 C 9,4 C 99 % 994,1 hPa 0,0 l/m 0,13 h 0,00 h 114 W/m 0,0 km/h (0 Bft) 95,45 %
19.10.2023 11:00 15,3 C 18,8 C 11,4 C 99 % 993,6 hPa 0,0 l/m 0,50 h 0,00 h 204 W/m 6,3 km/h (2 Bft) 99,72 %
19.10.2023 12:00 17,4 C 17,9 C 13,1 C 90 % 993,4 hPa 0,0 l/m 0,03 h 0,00 h 167 W/m 11,8 km/h (2 Bft) 96,73 %
19.10.2023 13:00 18,0 C 17,8 C 13,3 C 84 % 992,9 hPa 0,0 l/m 0,10 h 0,00 h 150 W/m 11,0 km/h (2 Bft) 97,02 %
19.10.2023 14:00 18,0 C 17,3 C 13,1 C 85 % 992,5 hPa 0,0 l/m 0,00 h 0,07 h 90 W/m 7,4 km/h (2 Bft) 98,36 %
19.10.2023 15:00 17,5 C 16,7 C 12,1 C 89 % 992,3 hPa 0,0 l/m 0,00 h 0,80 h 74 W/m 7,7 km/h (2 Bft) 97,30 %
19.10.2023 16:00 17,0 C 16,2 C 11,8 C 92 % 991,5 hPa 0,0 l/m 0,00 h 0,50 h 73 W/m 9,0 km/h (2 Bft) 96,37 %
19.10.2023 17:00 16,6 C 16,1 C 12,1 C 95 % 990,7 hPa 0,0 l/m 0,38 h 0,00 h 69 W/m 6,2 km/h (2 Bft) 99,03 %
19.10.2023 18:00 16,2 C 15,1 C 11,6 C 95 % 990,3 hPa 0,0 l/m 0,10 h 0,00 h 14 W/m 6,0 km/h (2 Bft) 94,50 %
19.10.2023 19:00 15,6 C 14,4 C 11,1 C 96 % 990,1 hPa 0,0 l/m 0,00 h 0,00 h 0 W/m 4,6 km/h (1 Bft) 99,37 %
19.10.2023 20:00 15,1 C 14,0 C 10,7 C 97 % 989,7 hPa 0,0 l/m 0,00 h 0,00 h 0 W/m 4,2 km/h (1 Bft) 97,86 %
19.10.2023 21:00 14,8 C 13,9 C 10,6 C 97 % 989,2 hPa 0,0 l/m 0,00 h 0,00 h 0 W/m 0,5 km/h (0 Bft) 96,02 %
19.10.2023 22:00 14,7 C 13,9 C 10,7 C 98 % 989,0 hPa 0,0 l/m 0,00 h 0,00 h 0 W/m 8,6 km/h (2 Bft) 98,21 %
19.10.2023 23:00 14,5 C 13,9 C 10,6 C 98 % 988,0 hPa 0,0 l/m 0,00 h 0,00 h 0 W/m 6,5 km/h (2 Bft) 97,77 %
20.10.2023 00:00 14,5 C 13,9 C 10,7 C 97 % 987,4 hPa 0,0 l/m 0,00 h 0,00 h 0 W/m 8,4 km/h (2 Bft) 93,03 %
20.10.2023 01:00 14,8 C 14,4 C 10,9 C 97 % 986,8 hPa 0,2 l/m 0,00 h 0,20 h 0 W/m 9,6 km/h (2 Bft) 98,42 %
20.10.2023 02:00 14,9 C 14,3 C 10,7 C 96 % 986,0 hPa 0,0 l/m 0,00 h 0,10 h 0 W/m 9,0 km/h (2 Bft) 96,90 %
20.10.2023 03:00 15,0 C 14,1 C 11,1 C 97 % 985,0 hPa 0,0 l/m 0,00 h 0,00 h 0 W/m 4,9 km/h (1 Bft) 97,11 %
20.10.2023 04:00 14,9 C 14,1 C 11,1 C 97 % 984,0 hPa 0,0 l/m 0,00 h 0,00 h 0 W/m 4,5 km/h (1 Bft) 99,27 %
20.10.2023 05:00 15,1 C 14,4 C 11,1 C 97 % 982,7 hPa 0,0 l/m 0,00 h 0,00 h 0 W/m 7,0 km/h (2 Bft) 95,52 %
20.10.2023 06:00 15,2 C 14,4 C 11,2 C 97 % 981,7 hPa 0,0 l/m 0,00 h 0,00 h 0 W/m 5,6 km/h (1 Bft) 98,21 %
20.10.2023 07:00 15,1 C 14,2 C 10,9 C 96 % 980,5 hPa 0,0 l/m 0,00 h 0,33 h 0 W/m 1,9 km/h (1 Bft) 98,38 %
20.10.2023 08:00 14,4 C 13,3 C 10,1 C 96 % 980,0 hPa 1,8 l/m 0,00 h 1,00 h 4 W/m 6,1 km/h (2 Bft) 96,27 %
20.10.2023 09:00 14,2 C 13,3 C 10,0 C 98 % 979,8 hPa 4,2 l/m 0,00 h 1,00 h 9 W/m 6,1 km/h (2 Bft) 97,66 %
20.10.2023 10:00 14,2 C 13,3 C 10,6 C 99 % 979,8 hPa 5,2 l/m 0,00 h 1,00 h 21 W/m 6,7 km/h (2 Bft) 99,36 %
20.10.2023 11:00 14,2 C 13,3 C 10,6 C 99 % 979,8 hPa 4,2 l/m 0,00 h 1,00 h 31 W/m 7,1 km/h (2 Bft) 94,89 %
20.10.2023 12:00 14,3 C 13,6 C 10,7 C 99 % 979,5 hPa 2,6 l/m 0,00 h 1,00 h 46 W/m 6,2 km/h (2 Bft) 98,02 %
20.10.2023 13:00 14,3 C 13,3 C 10,6 C 100 % 978,5 hPa 0,8 l/m 0,00 h 0,53 h 30 W/m 7,1 km/h (2 Bft) 97,30 %
20.10.2023 14:00 14,2 C 13,4 C 10,6 C 100 % 977,9 hPa 0,2 l/m 0,00 h 0,20 h 22 W/m 5,3 km/h (1 Bft) 96,51 %
20.10.2023 15:00 14,3 C 13,7 C 11,0 C 100 % 977,8 hPa 0,8 l/m 0,00 h 0,67 h 26 W/m 5,8 km/h (2 Bft) 98,08 %
20.10.2023 16:00 14,5 C 13,9 C 11,1 C 100 % 978,7 hPa 0,2 l/m 0,00 h 0,57 h 19 W/m 12,6 km/h (3 Bft) 98,55 %
20.10.2023 17:00 13,9 C 13,3 C 10,6 C 100 % 980,1 hPa 0,6 l/m 0,00 h 0,53 h 17 W/m 15,9 km/h (3 Bft) 95,43 %
20.10.2023 18:00 13,7 C 12,8 C 10,6 C 99 % 980,9 hPa 0,2 l/m 0,00 h 0,30 h 6 W/m 10,1 km/h (2 Bft) 99,27 %
20.10.2023 19:00 13,5 C 12,6 C 10,3 C 99 % 981,5 hPa 0,2 l/m 0,00 h 0,27 h 0 W/m 3,8 km/h (1 Bft) 97,22 %
20.10.2023 20:00 12,8 C 12,0 C 9,5 C 99 % 982,3 hPa 0,0 l/m 0,00 h 0,00 h 0 W/m 2,3 km/h (1 Bft) 96,81 %
20.10.2023 21:00 12,2 C 11,7 C 8,9 C 99 % 982,8 hPa 0,0 l/m 0,00 h 0,00 h 0 W/m 4,5 km/h (1 Bft) 98,85 %
20.10.2023 22:00 11,8 C 11,1 C 8,9 C 99 % 983,4 hPa 0,0 l/m 0,00 h 0,00 h 0 W/m 4,5 km/h (1 Bft) 97,08 %
20.10.2023 23:00 11,7 C 11,1 C 8,4 C 99 % 983,7 hPa 0,0 l/m 0,00 h 0,00 h 0 W/m 4,4 km/h (1 Bft) 97,41 %
21.10.2023 00:00 11,7 C 11,3 C 8,7 C 99 % 984,0 hPa 0,0 l/m 0,00 h 0,00 h 0 W/m 4,8 km/h (1 Bft) 96,75 %
21.10.2023 01:00 12,0 C 11,6 C 8,9 C 99 % 984,5 hPa 0,0 l/m 0,00 h 0,00 h 0 W/m 5,7 km/h (1 Bft) 99,08 %
21.10.2023 02:00 12,1 C 11,6 C 8,9 C 99 % 985,0 hPa 0,0 l/m 0,00 h 0,00 h 0 W/m 5,3 km/h (1 Bft) 96,40 %
21.10.2023 03:00 12,3 C 11,8 C 9,2 C 99 % 985,7 hPa 0,4 l/m 0,00 h 0,67 h 0 W/m 5,0 km/h (1 Bft) 97,30 %
21.10.2023 04:00 12,4 C 11,7 C 9,4 C 99 % 986,5 hPa 1,2 l/m 0,00 h 0,83 h 0 W/m 4,8 km/h (1 Bft) 98,43 %
21.10.2023 05:00 12,5 C 11,8 C 9,4 C 99 % 987,4 hPa 0,6 l/m 0,00 h 0,80 h 0 W/m 4,7 km/h (1 Bft) 96,67 %
21.10.2023 06:00 12,8 C 12,2 C 9,9 C 99 % 988,4 hPa 0,0 l/m 0,00 h 0,07 h 0 W/m 8,3 km/h (2 Bft) 96,40 %
21.10.2023 07:00 12,6 C 11,8 C 9,4 C 99 % 989,3 hPa 0,0 l/m 0,00 h 0,00 h 0 W/m 3,8 km/h (1 Bft) 98,71 %
21.10.2023 08:00 12,6 C 12,1 C 9,7 C 99 % 990,6 hPa 0,0 l/m 0,00 h 0,00 h 6 W/m 5,5 km/h (1 Bft) 94,07 %
21.10.2023 09:00 13,0 C 12,8 C 10,0 C 99 % 992,2 hPa 0,4 l/m 0,00 h 0,10 h 31 W/m 10,0 km/h (2 Bft) 98,19 %
21.10.2023 10:00 13,3 C 13,5 C 9,6 C 96 % 993,5 hPa 0,0 l/m 0,07 h 0,00 h 93 W/m 22,3 km/h (4 Bft) 98,45 %
21.10.2023 11:00 14,7 C 16,5 C 10,5 C 84 % 994,3 hPa 0,0 l/m 0,33 h 0,00 h 188 W/m 26,2 km/h (4 Bft) 93,22 %
21.10.2023 12:00 15,4 C 15,4 C 11,1 C 79 % 995,1 hPa 0,0 l/m 0,00 h 0,00 h 94 W/m 31,3 km/h (5 Bft) 98,53 %
21.10.2023 13:00 16,0 C 15,7 C 11,9 C 74 % 995,6 hPa 0,0 l/m 0,03 h 0,00 h 84 W/m 27,6 km/h (4 Bft) 97,26 %
21.10.2023 14:00 16,2 C 15,9 C 11,8 C 70 % 995,8 hPa 0,0 l/m 0,78 h 0,00 h 374 W/m 31,9 km/h (5 Bft) 95,51 %
21.10.2023 15:00 16,4 C 16,0 C 11,9 C 68 % 996,0 hPa 0,0 l/m 0,97 h 0,00 h 363 W/m 31,2 km/h (5 Bft) 97,15 %
21.10.2023 16:00 16,3 C 15,6 C 11,5 C 69 % 996,4 hPa 0,0 l/m 0,72 h 0,00 h 184 W/m 23,9 km/h (4 Bft) 96,02 %
21.10.2023 17:00 15,8 C 15,1 C 11,1 C 71 % 996,8 hPa 0,0 l/m 0,03 h 0,00 h 44 W/m 16,8 km/h (3 Bft) 96,76 %
21.10.2023 18:00 15,1 C 14,0 C 10,2 C 74 % 997,3 hPa 0,0 l/m 0,00 h 0,00 h 7 W/m 11,8 km/h (2 Bft) 98,04 %
21.10.2023 19:00 14,7 C 13,9 C 10,0 C 75 % 997,9 hPa 0,0 l/m 0,00 h 0,00 h 0 W/m 15,2 km/h (3 Bft) 95,78 %
21.10.2023 20:00 14,4 C 13,6 C 10,0 C 78 % 998,2 hPa 0,0 l/m 0,00 h 0,00 h 0 W/m 14,3 km/h (3 Bft) 98,81 %
21.10.2023 21:00 14,3 C 13,4 C 9,7 C 78 % 998,4 hPa 0,0 l/m 0,00 h 0,00 h 0 W/m 14,5 km/h (3 Bft) 97,17 %
21.10.2023 22:00 13,8 C 12,8 C 9,2 C 79 % 998,5 hPa 0,0 l/m 0,00 h 0,00 h 0 W/m 11,8 km/h (2 Bft) 95,82 %
21.10.2023 23:00 13,3 C 12,6 C 9,0 C 80 % 998,5 hPa 0,0 l/m 0,00 h 0,00 h 0 W/m 14,4 km/h (3 Bft) 96,85 %
22.10.2023 00:00 14,0 C 13,3 C 9,4 C 78 % 998,9 hPa 0,0 l/m 0,00 h 0,00 h 0 W/m 16,7 km/h (3 Bft) 97,27 %
22.10.2023 01:00 14,2 C 13,3 C 9,4 C 78 % 999,5 hPa 0,0 l/m 0,00 h 0,00 h 0 W/m 19,4 km/h (3 Bft) 96,37 %
22.10.2023 02:00 14,3 C 13,3 C 9,4 C 78 % 999,9 hPa 0,0 l/m 0,00 h 0,00 h 0 W/m 20,2 km/h (4 Bft) 98,69 %
22.10.2023 03:00 14,0 C 13,1 C 9,3 C 81 % 1000,3 hPa 0,0 l/m 0,00 h 0,03 h 0 W/m 20,3 km/h (4 Bft) 94,66 %
22.10.2023 04:00 13,5 C 12,8 C 9,0 C 84 % 1000,9 hPa 0,0 l/m 0,00 h 0,00 h 0 W/m 18,8 km/h (3 Bft) 98,81 %
22.10.2023 05:00 13,0 C 12,2 C 8,6 C 88 % 1001,7 hPa 0,0 l/m 0,00 h 0,23 h 0 W/m 19,6 km/h (3 Bft) 98,05 %
22.10.2023 06:00 12,9 C 12,2 C 8,8 C 90 % 1002,6 hPa 0,0 l/m 0,00 h 0,00 h 0 W/m 26,3 km/h (4 Bft) 96,49 %
22.10.2023 07:00 12,6 C 11,9 C 8,3 C 87 % 1003,6 hPa 0,0 l/m 0,00 h 0,07 h 0 W/m 18,9 km/h (3 Bft) 97,89 %
22.10.2023 08:00 12,2 C 11,7 C 8,0 C 85 % 1004,6 hPa 0,0 l/m 0,00 h 0,00 h 11 W/m 14,8 km/h (3 Bft) 98,79 %
22.10.2023 09:00 12,1 C 11,7 C 8,2 C 86 % 1005,6 hPa 0,0 l/m 0,00 h 0,00 h 41 W/m 13,3 km/h (3 Bft) 95,61 %
22.10.2023 10:00 12,6 C 12,4 C 8,8 C 86 % 1006,2 hPa 0,0 l/m 0,00 h 0,00 h 97 W/m 13,1 km/h (3 Bft) 99,44 %
22.10.2023 11:00 13,6 C 13,7 C 9,8 C 86 % 1007,1 hPa 0,0 l/m 0,03 h 0,00 h 146 W/m 12,8 km/h (3 Bft) 97,31 %
22.10.2023 12:00 14,1 C 14,2 C 10,2 C 86 % 1007,6 hPa 0,0 l/m 0,00 h 0,00 h 165 W/m 12,4 km/h (3 Bft) 96,49 %
22.10.2023 13:00 14,9 C 15,2 C 11,0 C 84 % 1007,9 hPa 0,0 l/m 0,17 h 0,00 h 210 W/m 13,9 km/h (3 Bft) 97,63 %
22.10.2023 14:00 15,3 C 15,0 C 11,0 C 83 % 1008,2 hPa 0,0 l/m 0,20 h 0,00 h 143 W/m 14,0 km/h (3 Bft) 95,90 %
22.10.2023 15:00 14,7 C 14,0 C 9,8 C 88 % 1008,8 hPa 0,2 l/m 0,17 h 0,17 h 108 W/m 13,3 km/h (3 Bft) 95,82 %
22.10.2023 16:00 14,4 C 14,1 C 10,1 C 91 % 1009,2 hPa 0,0 l/m 0,10 h 0,03 h 83 W/m 9,7 km/h (2 Bft) 99,41 %
22.10.2023 17:00 14,5 C 13,8 C 10,2 C 89 % 1009,6 hPa 0,0 l/m 0,00 h 0,00 h 29 W/m 10,0 km/h (2 Bft) 95,88 %
22.10.2023 18:00 14,1 C 13,0 C 9,4 C 90 % 1010,2 hPa 0,0 l/m 0,00 h 0,00 h 7 W/m 6,4 km/h (2 Bft) 97,35 %
22.10.2023 19:00 13,7 C 12,6 C 9,3 C 91 % 1010,9 hPa 0,0 l/m 0,00 h 0,00 h 0 W/m 7,0 km/h (2 Bft) 98,52 %
22.10.2023 20:00 12,9 C 11,9 C 8,6 C 92 % 1011,6 hPa 0,0 l/m 0,00 h 0,00 h 0 W/m 5,2 km/h (1 Bft) 94,77 %
22.10.2023 21:00 12,3 C 11,2 C 8,3 C 93 % 1012,2 hPa 0,0 l/m 0,00 h 0,00 h 0 W/m 4,6 km/h (1 Bft) 96,83 %
22.10.2023 22:00 12,1 C 11,1 C 8,2 C 95 % 1012,7 hPa 0,0 l/m 0,00 h 0,00 h 0 W/m 2,9 km/h (1 Bft) 98,95 %
22.10.2023 23:00 11,7 C 10,6 C 7,8 C 95 % 1012,9 hPa 0,0 l/m 0,00 h 0,00 h 0 W/m 2,4 km/h (1 Bft) 95,15 %
Min-Datum _ 16.10.23 16.10.23 18.10.23 18.10.23 20.10.23 - - - - 16.10.23 20.10.23
_ Min-Zeit 07:12 05:44 05:35 15:15 15:06 - - - - 00:00 00:02
Minimum _ 3,6 C 2,8 C 0,0 C 62 % 977,6 hPa - - - - 0,0 km/h (0 Bft) 12,50 %
Max-Datum _ 19.10.23 19.10.23 19.10.23 20.10.23 16.10.23 20.10.23 16.10.23 18.10.23 21.10.23 21.10.23 16.10.23
_ Max-Zeit 13:14 11:36 13:46 12:46 00:00 10:00 17:10 21:40 14:52 15:42 00:12
Maximum _ 18,2 C 23,3 C 13,9 C 100 % 1025,1 hPa 5,2 l/m 0,08 h 0,08 h 545 W/m 57,9 km/h
S-SW (7 Bft)
100,00 %
Durchschnitt _ 11,5 C 11,0 C 7,5 C 90 % 1003,2 hPa #32,2 l/m #12:55 h #15:26 h 104 W/m 8,7 km/h (2 Bft) 97,70 %
© 2023 W. Hausmann